sensor_id;sensor_type;location;lat;lon;timestamp;P1;durP1;ratioP1;P2;durP2;ratioP2
58982;SDS011;44771;49.982;8.560;2023-06-24T12:06:28;43.70;;;40.85;;
58982;SDS011;44771;49.982;8.560;2023-06-24T12:11:30;189.85;;;81.22;;
58982;SDS011;44771;49.982;8.560;2023-06-24T12:16:32;1999.90;;;999.90;;
58982;SDS011;44771;49.982;8.560;2023-06-24T12:21:35;10.15;;;9.70;;
58982;SDS011;44771;49.982;8.560;2023-06-24T12:26:37;5.65;;;5.32;;
58982;SDS011;44771;49.982;8.560;2023-06-24T12:31:38;2.95;;;2.85;;
58982;SDS011;44771;49.982;8.560;2023-06-24T12:36:41;62.17;;;58.05;;
58982;SDS011;44771;49.982;8.560;2023-06-24T12:41:43;136.50;;;119.85;;
58982;SDS011;44771;49.982;8.560;2023-06-24T12:46:45;1999.90;;;999.90;;
58982;SDS011;44771;49.982;8.560;2023-06-24T12:51:48;6.65;;;6.35;;
58982;SDS011;44771;49.982;8.560;2023-06-24T12:56:50;198.48;;;181.10;;
58982;SDS011;44771;49.982;8.560;2023-06-24T13:02:05;4.70;;;4.47;;
58982;SDS011;44771;49.982;8.560;2023-06-24T13:07:08;29.55;;;22.90;;
58982;SDS011;44771;49.982;8.560;2023-06-24T13:12:10;1999.90;;;999.90;;
58982;SDS011;44771;49.982;8.560;2023-06-24T13:17:12;128.75;;;118.22;;
58982;SDS011;44771;49.982;8.560;2023-06-24T13:22:15;7.50;;;7.20;;
58982;SDS011;44771;49.982;8.560;2023-06-24T13:27:17;1053.53;;;548.37;;
58982;SDS011;44771;49.982;8.560;2023-06-24T13:32:19;1999.90;;;999.90;;
58982;SDS011;44771;49.982;8.560;2023-06-24T13:37:22;1999.90;;;999.90;;
58982;SDS011;44771;49.982;8.560;2023-06-24T13:42:24;1999.90;;;999.90;;
58982;SDS011;44771;49.982;8.560;2023-06-24T13:47:25;7.12;;;6.57;;
58982;SDS011;44771;49.982;8.560;2023-06-24T13:52:29;31.05;;;29.20;;
58982;SDS011;44771;49.982;8.560;2023-06-24T13:57:31;842.60;;;346.25;;
58982;SDS011;44771;49.982;8.560;2023-06-24T14:02:32;553.55;;;299.42;;
58982;SDS011;44771;49.982;8.560;2023-06-24T14:07:36;1999.90;;;999.90;;
58982;SDS011;44771;49.982;8.560;2023-06-24T14:12:37;1999.90;;;999.90;;
58982;SDS011;44771;49.982;8.560;2023-06-24T14:17:39;1999.90;;;999.90;;
58982;SDS011;44771;49.982;8.560;2023-06-24T14:22:43;1999.90;;;999.90;;
58982;SDS011;44771;49.982;8.560;2023-06-24T14:27:44;1999.90;;;999.90;;
58982;SDS011;44771;49.982;8.560;2023-06-24T14:32:46;1999.90;;;999.90;;
58982;SDS011;44771;49.982;8.560;2023-06-24T14:37:50;1999.90;;;999.90;;
58982;SDS011;44771;49.982;8.560;2023-06-24T14:42:52;1999.90;;;999.90;;
58982;SDS011;44771;49.982;8.560;2023-06-24T14:47:53;78.68;;;74.82;;
58982;SDS011;44771;49.982;8.560;2023-06-24T14:52:57;56.58;;;52.97;;
58982;SDS011;44771;49.982;8.560;2023-06-24T14:57:59;35.38;;;28.75;;
58982;SDS011;44771;49.982;8.560;2023-06-24T15:03:00;27.60;;;26.30;;
58982;SDS011;44771;49.982;8.560;2023-06-24T15:08:04;32.63;;;31.02;;
58982;SDS011;44771;49.982;8.560;2023-06-24T15:13:06;42.03;;;39.45;;
58982;SDS011;44771;49.982;8.560;2023-06-24T15:18:07;1999.90;;;999.90;;
58982;SDS011;44771;49.982;8.560;2023-06-24T15:23:13;1999.90;;;999.90;;
58982;SDS011;44771;49.982;8.560;2023-06-24T15:28:15;1999.90;;;999.90;;
58982;SDS011;44771;49.982;8.560;2023-06-24T15:33:16;59.70;;;56.80;;
58982;SDS011;44771;49.982;8.560;2023-06-24T15:38:20;21.92;;;19.40;;
58982;SDS011;44771;49.982;8.560;2023-06-24T15:43:22;3.90;;;3.80;;
58982;SDS011;44771;49.982;8.560;2023-06-24T15:48:24;70.62;;;63.50;;
58982;SDS011;44771;49.982;8.560;2023-06-24T15:53:27;4.43;;;4.22;;
58982;SDS011;44771;49.982;8.560;2023-06-24T15:58:29;10.18;;;9.68;;
58982;SDS011;44771;49.982;8.560;2023-06-24T16:03:30;8.15;;;7.37;;
58982;SDS011;44771;49.982;8.560;2023-06-24T16:08:34;210.75;;;188.55;;
58982;SDS011;44771;49.982;8.560;2023-06-24T16:13:36;1999.90;;;999.90;;
58982;SDS011;44771;49.982;8.560;2023-06-24T16:18:37;1999.90;;;999.90;;
58982;SDS011;44771;49.982;8.560;2023-06-24T16:23:41;1999.90;;;999.90;;
58982;SDS011;44771;49.982;8.560;2023-06-24T16:28:43;1503.18;;;752.55;;
58982;SDS011;44771;49.982;8.560;2023-06-24T16:33:44;1999.90;;;999.90;;
58982;SDS011;44771;49.982;8.560;2023-06-24T16:38:48;1999.90;;;999.90;;
58982;SDS011;44771;49.982;8.560;2023-06-24T16:43:49;1999.90;;;999.90;;
58982;SDS011;44771;49.982;8.560;2023-06-24T16:48:51;1999.90;;;999.90;;
58982;SDS011;44771;49.982;8.560;2023-06-24T16:53:54;1999.90;;;999.90;;
58982;SDS011;44771;49.982;8.560;2023-06-24T16:58:56;170.02;;;156.98;;
58982;SDS011;44771;49.982;8.560;2023-06-24T17:03:58;1999.90;;;999.90;;
58982;SDS011;44771;49.982;8.560;2023-06-24T17:09:01;1999.90;;;999.90;;
58982;SDS011;44771;49.982;8.560;2023-06-24T17:14:02;1999.90;;;999.90;;
58982;SDS011;44771;49.982;8.560;2023-06-24T17:19:04;1999.90;;;999.90;;
58982;SDS011;44771;49.982;8.560;2023-06-24T17:24:07;1999.90;;;999.90;;
58982;SDS011;44771;49.982;8.560;2023-06-24T17:29:09;1999.90;;;999.90;;
58982;SDS011;44771;49.982;8.560;2023-06-24T17:34:11;1999.90;;;999.90;;
58982;SDS011;44771;49.982;8.560;2023-06-24T17:39:14;1999.90;;;999.90;;
58982;SDS011;44771;49.982;8.560;2023-06-24T17:44:16;1999.90;;;999.90;;
58982;SDS011;44771;49.982;8.560;2023-06-24T17:49:17;1999.90;;;999.90;;
58982;SDS011;44771;49.982;8.560;2023-06-24T17:59:23;1999.90;;;999.90;;
58982;SDS011;44771;49.982;8.560;2023-06-24T18:04:25;1999.90;;;999.90;;
58982;SDS011;44771;49.982;8.560;2023-06-24T18:09:28;1999.90;;;999.90;;
58982;SDS011;44771;49.982;8.560;2023-06-24T18:14:30;1548.78;;;770.50;;
58982;SDS011;44771;49.982;8.560;2023-06-24T18:19:32;1999.90;;;999.90;;
58982;SDS011;44771;49.982;8.560;2023-06-24T18:24:35;1999.90;;;999.90;;
58982;SDS011;44771;49.982;8.560;2023-06-24T18:29:37;1999.90;;;999.90;;
58982;SDS011;44771;49.982;8.560;2023-06-24T18:34:39;1999.90;;;999.90;;
58982;SDS011;44771;49.982;8.560;2023-06-24T18:39:42;1097.88;;;587.25;;
58982;SDS011;44771;49.982;8.560;2023-06-24T18:44:44;59.90;;;56.92;;
58982;SDS011;44771;49.982;8.560;2023-06-24T18:49:45;104.70;;;95.93;;
58982;SDS011;44771;49.982;8.560;2023-06-24T18:54:48;1999.90;;;999.90;;
58982;SDS011;44771;49.982;8.560;2023-06-24T18:59:50;1999.90;;;999.90;;
58982;SDS011;44771;49.982;8.560;2023-06-24T19:04:52;1999.90;;;999.90;;
58982;SDS011;44771;49.982;8.560;2023-06-24T19:09:55;1999.90;;;999.90;;
58982;SDS011;44771;49.982;8.560;2023-06-24T19:14:57;1999.90;;;999.90;;
58982;SDS011;44771;49.982;8.560;2023-06-24T19:19:59;1524.88;;;757.62;;
58982;SDS011;44771;49.982;8.560;2023-06-24T19:25:02;3.33;;;3.17;;
58982;SDS011;44771;49.982;8.560;2023-06-24T19:30:04;41.78;;;9.05;;
58982;SDS011;44771;49.982;8.560;2023-06-24T19:35:07;1999.90;;;999.90;;
58982;SDS011;44771;49.982;8.560;2023-06-24T19:40:10;880.75;;;309.23;;
58982;SDS011;44771;49.982;8.560;2023-06-24T19:45:12;439.55;;;89.37;;
58982;SDS011;44771;49.982;8.560;2023-06-24T19:50:14;13.82;;;11.30;;
58982;SDS011;44771;49.982;8.560;2023-06-24T19:55:17;181.90;;;100.38;;
58982;SDS011;44771;49.982;8.560;2023-06-24T20:00:19;1.75;;;1.75;;
58982;SDS011;44771;49.982;8.560;2023-06-24T20:05:24;1523.07;;;771.28;;
58982;SDS011;44771;49.982;8.560;2023-06-24T20:10:27;16.45;;;10.18;;
58982;SDS011;44771;49.982;8.560;2023-06-24T20:15:29;12.05;;;11.25;;
58982;SDS011;44771;49.982;8.560;2023-06-24T20:20:30;12.00;;;11.10;;
58982;SDS011;44771;49.982;8.560;2023-06-24T20:25:34;11.02;;;9.90;;
58982;SDS011;44771;49.982;8.560;2023-06-24T20:30:35;12.23;;;11.02;;
58982;SDS011;44771;49.982;8.560;2023-06-24T20:35:38;9.32;;;8.65;;
58982;SDS011;44771;49.982;8.560;2023-06-24T20:40:41;11.35;;;10.18;;
58982;SDS011;44771;49.982;8.560;2023-06-24T20:45:43;13.70;;;9.65;;
58982;SDS011;44771;49.982;8.560;2023-06-24T20:50:45;13.50;;;12.02;;
58982;SDS011;44771;49.982;8.560;2023-06-24T20:55:48;27.45;;;24.90;;
58982;SDS011;44771;49.982;8.560;2023-06-24T21:00:50;11.18;;;10.02;;
58982;SDS011;44771;49.982;8.560;2023-06-24T21:05:52;11.93;;;10.80;;
58982;SDS011;44771;49.982;8.560;2023-06-24T21:10:55;679.10;;;156.73;;
58982;SDS011;44771;49.982;8.560;2023-06-24T21:15:58;443.40;;;94.97;;
58982;SDS011;44771;49.982;8.560;2023-06-24T21:20:59;45.12;;;13.05;;
58982;SDS011;44771;49.982;8.560;2023-06-24T21:26:03;215.32;;;20.12;;
58982;SDS011;44771;49.982;8.560;2023-06-24T21:31:04;11.82;;;10.60;;
58982;SDS011;44771;49.982;8.560;2023-06-24T21:36:06;13.88;;;10.85;;
58982;SDS011;44771;49.982;8.560;2023-06-24T21:41:09;13.85;;;11.65;;
58982;SDS011;44771;49.982;8.560;2023-06-24T21:46:11;510.33;;;212.95;;
58982;SDS011;44771;49.982;8.560;2023-06-24T21:51:13;15.73;;;12.98;;
58982;SDS011;44771;49.982;8.560;2023-06-24T21:56:16;72.12;;;51.60;;
58982;SDS011;44771;49.982;8.560;2023-06-24T22:01:18;4.70;;;4.50;;
58982;SDS011;44771;49.982;8.560;2023-06-24T22:06:21;4.62;;;4.43;;
58982;SDS011;44771;49.982;8.560;2023-06-24T22:11:24;14.13;;;7.60;;
58982;SDS011;44771;49.982;8.560;2023-06-24T22:16:26;3.00;;;2.90;;
58982;SDS011;44771;49.982;8.560;2023-06-24T22:21:27;3.17;;;3.08;;
58982;SDS011;44771;49.982;8.560;2023-06-24T22:26:31;16.35;;;14.90;;
58982;SDS011;44771;49.982;8.560;2023-06-24T22:31:33;1.83;;;1.80;;
58982;SDS011;44771;49.982;8.560;2023-06-24T22:36:35;2.80;;;2.70;;
58982;SDS011;44771;49.982;8.560;2023-06-24T22:41:40;2.55;;;2.45;;
58982;SDS011;44771;49.982;8.560;2023-06-24T22:46:42;1.40;;;1.40;;
58982;SDS011;44771;49.982;8.560;2023-06-24T22:51:44;1.80;;;1.80;;
58982;SDS011;44771;49.982;8.560;2023-06-24T22:56:47;1.77;;;1.77;;
58982;SDS011;44771;49.982;8.560;2023-06-24T23:01:49;2.17;;;2.08;;
58982;SDS011;44771;49.982;8.560;2023-06-24T23:06:51;2.55;;;2.45;;
58982;SDS011;44771;49.982;8.560;2023-06-24T23:11:55;1.40;;;1.40;;
58982;SDS011;44771;49.982;8.560;2023-06-24T23:16:58;27.23;;;24.58;;
58982;SDS011;44771;49.982;8.560;2023-06-24T23:22:01;20.10;;;18.65;;
58982;SDS011;44771;49.982;8.560;2023-06-24T23:27:05;15.57;;;13.98;;
58982;SDS011;44771;49.982;8.560;2023-06-24T23:32:08;425.47;;;125.50;;
58982;SDS011;44771;49.982;8.560;2023-06-24T23:37:11;26.23;;;23.83;;
58982;SDS011;44771;49.982;8.560;2023-06-24T23:42:15;15.10;;;11.70;;
58982;SDS011;44771;49.982;8.560;2023-06-24T23:47:17;15.50;;;11.77;;
58982;SDS011;44771;49.982;8.560;2023-06-24T23:52:18;14.95;;;11.43;;
58982;SDS011;44771;49.982;8.560;2023-06-24T23:57:21;17.90;;;11.95;;
